.
WxDataArchive / Data Records for 2011-04-05
2011-04-04 April 2011 2011-04-06

Data Records for Tuesday, 05 April 2011

Time	Temp	Chill	HIndex	Humid	Dewpt	 Wind 	HiWind	WindDir	Rain 	Barom 
-----	----	-----	------	-----	-----	------	------	-------	-----	----- 
00:00	40.6	40.6	40.6	70	31.6	1	3	315	0.00	29.566 
00:05	40.6	40.6	40.6	70	31.6	1	4	270	0.00	29.566 
00:10	40.6	40.6	40.6	70	31.6	1	2	270	0.00	29.566 
00:15	40.6	40.6	40.6	69	31.2	1	3	338	0.00	29.557 
00:20	40.6	40.6	40.6	70	31.6	1	3	225	0.00	29.557 
00:25	40.6	40.6	40.6	70	31.6	1	4	315	0.00	29.557 
00:30	40.5	40.5	40.5	71	31.8	1	3	248	0.00	29.573 
00:35	40.5	40.5	40.5	71	31.8	1	3	338	0.00	29.573 
00:40	40.5	40.5	40.5	72	32.2	2	3	248	0.00	29.573 
00:45	40.5	40.5	40.5	72	32.2	1	4	292	0.00	29.575 
00:50	40.5	40.5	40.5	72	32.2	1	5	248	0.00	29.575 
00:55	40.5	40.5	40.5	71	31.8	2	4	270	0.00	29.575 
01:00	40.6	40.6	40.6	71	31.9	2	4	315	0.00	29.577 
01:05	40.5	40.5	40.5	71	31.8	1	3	270	0.00	29.577 
01:10	40.5	40.5	40.5	72	32.2	2	3	270	0.00	29.577 
01:15	40.5	40.5	40.5	72	32.2	2	6	270	0.00	29.584 
01:20	40.5	40.5	40.5	72	32.2	2	4	270	0.00	29.584 
01:25	40.5	40.5	40.5	73	32.5	2	5	338	0.00	29.584 
01:30	40.3	40.3	40.3	73	32.3	2	4	248	0.00	29.590 
01:35	40.3	40.3	40.3	72	32.0	2	5	248	0.00	29.590 
01:40	40.5	40.5	40.5	72	32.2	3	7	315	0.00	29.590 
01:45	40.5	40.5	40.5	71	31.8	2	5	338	0.00	29.587 
01:50	40.5	40.5	40.5	71	31.8	2	5	338	0.00	29.587 
01:55	40.5	40.5	40.5	71	31.8	2	7	270	0.00	29.587 
02:00	40.3	40.3	40.3	71	31.7	2	4	270	0.00	29.586 
02:05	40.3	40.3	40.3	71	31.7	2	6	338	0.00	29.586 
02:10	40.2	40.2	40.2	71	31.6	2	4	338	0.00	29.586 
02:15	40.2	40.2	40.2	71	31.6	2	5	270	0.00	29.593 
02:20	40.1	40.1	40.1	71	31.5	2	5	315	0.00	29.593 
02:25	40.1	40.1	40.1	71	31.5	2	6	338	0.00	29.593 
02:30	39.9	39.9	39.9	71	31.3	2	5	338	0.00	29.585 
02:35	39.8	39.8	39.8	72	31.5	2	6	270	0.00	29.585 
02:40	39.6	39.6	39.6	72	31.3	1	4	270	0.00	29.585 
02:45	39.5	39.5	39.5	73	31.6	1	5	338	0.00	29.593 
02:50	39.5	39.5	39.5	73	31.6	2	10	315	0.00	29.593 
02:55	39.3	39.3	39.3	73	31.4	2	5	270	0.00	29.593 
03:00	39.3	39.3	39.3	73	31.4	1	3	270	0.00	29.606 
03:05	39.2	39.2	39.2	74	31.6	1	3	292	0.00	29.606 
03:10	39.2	39.2	39.2	74	31.6	1	4	270	0.00	29.606 
03:15	39.2	39.2	39.2	74	31.6	2	4	270	0.00	29.614 
03:20	39.3	39.3	39.3	73	31.4	2	5	270	0.00	29.614 
03:25	39.3	39.3	39.3	72	31.0	2	5	338	0.00	29.614 
03:30	39.3	39.3	39.3	71	30.7	2	4	315	0.00	29.617 
03:35	39.2	39.2	39.2	70	30.3	2	4	315	0.00	29.617 
03:40	39.1	39.1	39.1	69	29.8	2	5	270	0.00	29.617 
03:45	38.9	38.9	38.9	69	29.6	3	7	270	0.00	29.623 
03:50	38.8	38.8	38.8	69	29.5	2	4	315	0.00	29.623 
03:55	38.5	38.5	38.5	69	29.2	2	5	270	0.00	29.623 
04:00	38.0	38.0	38.0	69	28.7	2	4	315	0.00	29.627 
04:05	37.9	37.9	37.9	69	28.7	2	7	315	0.00	29.627 
04:10	37.6	37.6	37.6	70	28.7	2	4	270	0.00	29.627 
04:15	37.6	37.6	37.6	70	28.7	2	5	338	0.00	29.632 
04:20	37.5	37.5	37.5	70	28.6	1	5	338	0.00	29.632 
04:25	37.3	37.3	37.3	70	28.4	1	5	315	0.00	29.632 
04:30	37.2	37.2	37.2	71	28.7	1	3	270	0.00	29.635 
04:35	37.2	37.2	37.2	71	28.7	2	6	270	0.00	29.635 
04:40	37.0	37.0	37.0	71	28.5	2	4	315	0.00	29.635 
04:45	37.0	37.0	37.0	72	28.8	2	4	315	0.00	29.648 
04:50	36.9	36.9	36.9	72	28.7	1	3	315	0.00	29.648 
04:55	36.8	36.8	36.8	72	28.6	2	5	0	0.00	29.648 
05:00	36.6	36.6	36.6	73	28.8	1	5	270	0.00	29.651 
05:05	36.5	36.5	36.5	73	28.7	1	4	225	0.00	29.651 
05:10	36.5	36.5	36.5	73	28.7	1	4	225	0.00	29.651 
05:15	36.3	36.3	36.3	73	28.5	1	4	270	0.00	29.660 
05:20	36.2	36.2	36.2	74	28.7	1	4	270	0.00	29.660 
05:25	35.9	35.9	35.9	74	28.4	1	3	270	0.00	29.660 
05:30	35.8	35.8	35.8	75	28.7	1	4	248	0.00	29.665 
05:35	35.6	35.6	35.6	75	28.5	1	3	270	0.00	29.665 
05:40	35.5	35.5	35.5	76	28.7	1	3	270	0.00	29.665 
05:45	35.3	35.3	35.3	76	28.5	1	3	270	0.00	29.672 
05:50	35.3	35.3	35.3	76	28.5	1	3	338	0.00	29.672 
05:55	35.2	35.2	35.2	76	28.4	1	4	0	0.00	29.672 
06:00	35.2	35.2	35.2	75	28.1	1	3	248	0.00	29.680 
06:05	35.2	35.2	35.2	75	28.1	1	3	248	0.00	29.680 
06:10	35.0	35.0	35.0	75	27.9	1	3	248	0.00	29.680 
06:15	34.9	34.9	34.9	75	27.8	1	2	248	0.00	29.693 
06:20	34.7	34.7	34.7	75	27.6	1	3	248	0.00	29.693 
06:25	34.6	34.6	34.6	75	27.5	1	3	248	0.00	29.693 
06:30	34.6	34.6	34.6	75	27.5	1	2	248	0.00	29.696 
06:35	34.4	34.4	34.4	75	27.3	1	3	248	0.00	29.696 
06:40	34.4	34.4	34.4	75	27.3	2	4	248	0.00	29.696 
06:45	34.4	34.4	34.4	74	27.0	1	3	248	0.00	29.710 
06:50	34.3	34.3	34.3	74	26.9	2	6	338	0.00	29.710 
06:55	34.3	34.3	34.3	73	26.6	1	3	225	0.00	29.710 
07:00	34.3	34.3	34.3	73	26.6	2	5	248	0.00	29.714 
07:05	34.3	34.3	34.3	73	26.6	1	3	248	0.00	29.714 
07:10	34.1	34.1	34.1	73	26.4	1	4	248	0.00	29.714 
07:15	33.8	33.8	33.8	73	26.1	1	3	248	0.00	29.730 
07:20	33.8	33.8	33.8	73	26.1	2	4	248	0.00	29.730 
07:25	33.8	33.8	33.8	73	26.1	1	3	270	0.00	29.730 
07:30	33.8	33.8	33.8	73	26.1	2	5	270	0.00	29.743 
07:35	33.8	33.8	33.8	73	26.1	2	3	315	0.00	29.743 
07:40	33.8	33.8	33.8	73	26.1	1	3	270	0.00	29.743 
07:45	34.0	34.0	34.0	73	26.3	2	5	338	0.00	29.756 
07:50	34.1	34.1	34.1	73	26.4	1	3	270	0.00	29.756 
07:55	34.3	34.3	34.3	73	26.6	1	2	270	0.00	29.756 
08:00	34.4	34.4	34.4	73	26.7	2	3	248	0.00	29.761 
08:05	34.7	34.7	34.7	72	26.6	2	9	248	0.00	29.761 
08:10	34.9	34.9	34.9	71	26.5	1	5	315	0.00	29.761 
08:15	35.2	35.2	35.2	70	26.4	2	7	315	0.00	29.770 
08:20	35.5	35.5	35.5	69	26.4	2	5	315	0.00	29.770 
08:25	35.6	35.6	35.6	68	26.1	2	6	248	0.00	29.770 
08:30	35.9	35.9	35.9	66	25.7	2	6	292	0.00	29.776 
08:35	36.0	36.0	36.0	66	25.8	2	5	248	0.00	29.776 
08:40	36.2	36.2	36.2	65	25.6	2	6	270	0.00	29.776 
08:45	36.5	36.5	36.5	63	25.1	2	6	270	0.00	29.788 
08:50	36.5	36.5	36.5	62	24.7	2	5	338	0.00	29.788 
08:55	36.8	36.8	36.8	62	25.0	2	4	292	0.00	29.788 
09:00	37.0	37.0	37.0	62	25.2	2	4	270	0.00	29.790 
09:05	37.3	37.3	37.3	62	25.5	2	4	270	0.00	29.790 
09:10	37.5	37.5	37.5	62	25.7	1	4	338	0.00	29.790 
09:15	37.6	37.6	37.6	59	24.6	2	5	248	0.00	29.793 
09:20	37.6	37.6	37.6	59	24.6	3	7	338	0.00	29.793 
09:25	37.9	37.9	37.9	60	25.3	2	4	270	0.00	29.793 
09:30	38.0	38.0	38.0	57	24.1	3	6	270	0.00	29.793 
09:35	38.3	38.3	38.3	55	23.6	2	3	270	0.00	29.793 
09:40	38.9	38.9	38.9	55	24.1	1	4	338	0.00	29.793 
09:45	39.2	39.2	39.2	53	23.5	2	6	270	0.00	29.801 
09:50	39.2	39.2	39.2	52	23.1	3	6	248	0.00	29.801 
09:55	39.6	39.6	39.6	54	24.3	1	4	315	0.00	29.801 
10:00	40.1	40.1	40.1	50	23.0	2	5	292	0.00	29.798 
10:05	40.2	40.2	40.2	50	23.1	2	4	270	0.00	29.798 
10:10	40.5	40.5	40.5	48	22.4	2	6	248	0.00	29.798 
10:15	40.5	40.5	40.5	47	21.9	3	8	338	0.00	29.801 
10:20	40.5	40.5	40.5	47	21.9	3	8	315	0.00	29.801 
10:25	40.9	40.9	40.9	50	23.7	1	4	315	0.00	29.801 
10:30	41.2	41.2	41.2	46	22.0	2	7	315	0.00	29.806 
10:35	41.1	41.1	41.1	46	21.9	2	9	315	0.00	29.806 
10:40	41.2	41.2	41.2	47	22.5	3	6	270	0.00	29.806 
10:45	41.3	41.3	41.3	46	22.1	3	6	270	0.00	29.805 
10:50	41.5	41.5	41.5	46	22.3	2	3	270	0.00	29.805 
10:55	41.6	41.6	41.6	45	21.9	3	6	292	0.00	29.805 
11:00	41.9	41.9	41.9	46	22.6	2	6	338	0.00	29.804 
11:05	42.5	42.5	42.5	46	23.2	3	7	292	0.00	29.804 
11:10	42.5	42.5	42.5	46	23.2	3	7	315	0.00	29.804 
11:15	43.1	43.1	43.1	46	23.7	2	5	338	0.00	29.809 
11:20	42.5	42.5	42.5	44	22.1	3	7	270	0.00	29.809 
11:25	41.5	39.1	41.5	44	21.2	4	8	270	0.00	29.809 
11:30	41.6	41.6	41.6	46	22.4	3	8	270	0.00	29.813 
11:35	42.1	42.1	42.1	45	22.3	2	6	315	0.00	29.813 
11:40	42.5	42.5	42.5	46	23.2	3	7	292	0.00	29.813 
11:45	42.3	42.3	42.3	44	22.0	3	10	270	0.00	29.816 
11:50	42.1	39.7	42.1	43	21.2	4	11	338	0.00	29.816 
11:55	42.8	40.6	42.8	44	22.4	4	8	292	0.00	29.816 
12:00	43.3	43.3	43.3	43	22.3	2	5	315	0.00	29.812 
12:05	43.6	43.6	43.6	42	22.0	3	6	270	0.00	29.812 
12:10	43.6	41.5	43.6	41	21.5	4	10	270	0.00	29.812 
12:15	43.3	43.3	43.3	40	20.6	3	6	270	0.00	29.805 
12:20	43.2	41.0	43.2	40	20.5	4	9	315	0.00	29.805 
12:25	42.9	42.9	42.9	42	21.4	3	7	292	0.00	29.805 
12:30	42.5	42.5	42.5	43	21.6	3	7	270	0.00	29.815 
12:35	42.2	39.9	42.2	48	23.9	4	9	270	0.00	29.815 
12:40	41.6	39.2	41.6	53	25.8	4	11	270	0.00	29.815 
12:45	40.9	40.9	40.9	54	25.6	3	6	270	0.00	29.817 
12:50	41.6	41.6	41.6	56	27.1	2	6	270	0.00	29.817 
12:55	42.8	42.8	42.8	50	25.5	3	6	315	0.00	29.817 
13:00	42.6	40.3	42.6	46	23.3	4	6	270	0.00	29.812 
13:05	41.9	39.5	41.9	48	23.7	4	10	270	0.00	29.812 
13:10	41.3	41.3	41.3	52	25.0	3	7	292	0.00	29.812 
13:15	41.8	41.8	41.8	54	26.4	3	5	248	0.00	29.812 
13:20	42.2	42.2	42.2	51	25.4	3	5	270	0.00	29.812 
13:25	42.6	42.6	42.6	48	24.3	3	7	248	0.00	29.812 
13:30	42.9	42.9	42.9	49	25.1	3	7	338	0.00	29.805 
13:35	44.2	44.2	44.2	46	24.7	3	6	292	0.00	29.805 
13:40	45.2	43.3	45.2	44	24.6	4	8	270	0.00	29.805 
13:45	45.1	43.2	45.1	41	22.8	4	9	270	0.00	29.803 
13:50	44.3	44.3	44.3	40	21.5	3	7	270	0.00	29.803 
13:55	43.9	43.9	43.9	42	22.3	3	6	248	0.00	29.803 
14:00	43.8	40.9	43.8	42	22.2	5	11	270	0.00	29.805 
14:05	43.8	43.8	43.8	41	21.7	3	5	270	0.00	29.805 
14:10	43.9	41.8	43.9	39	20.6	4	7	270	0.00	29.805 
14:15	45.4	42.8	45.4	39	21.9	5	9	270	0.00	29.807 
14:20	46.0	44.2	46.0	36	20.6	4	8	270	0.00	29.807 
14:25	46.2	44.5	46.2	35	20.1	4	9	270	0.00	29.807 
14:30	46.1	44.4	46.1	35	20.0	4	10	270	0.00	29.807 
14:35	45.4	43.6	45.4	36	20.0	4	9	270	0.00	29.807 
14:40	45.2	43.3	45.2	36	19.8	4	6	270	0.00	29.807 
14:45	45.4	43.6	45.4	35	19.4	4	7	270	0.00	29.814 
14:50	45.7	45.7	45.7	34	19.0	3	6	270	0.00	29.814 
14:55	45.7	45.7	45.7	36	20.3	3	7	270	0.00	29.814 
15:00	45.4	43.6	45.4	36	20.0	4	10	270	0.00	29.815 
15:05	46.4	44.7	46.4	35	20.3	4	8	270	0.00	29.815 
15:10	46.8	45.2	46.8	32	18.5	4	9	292	0.00	29.815 
15:15	46.5	44.8	46.5	31	17.5	4	11	292	0.00	29.813 
15:20	46.2	44.5	46.2	32	18.0	4	9	270	0.00	29.813 
15:25	46.5	46.5	46.5	37	21.6	3	6	315	0.00	29.813 
15:30	47.1	44.8	47.1	30	17.3	5	11	270	0.00	29.813 
15:35	46.8	45.2	46.8	32	18.5	4	9	270	0.00	29.813 
15:40	47.4	45.9	47.4	31	18.3	4	9	270	0.00	29.813 
15:45	47.0	45.4	47.0	31	18.0	4	7	270	0.00	29.813 
15:50	47.6	47.6	47.6	35	21.3	3	6	270	0.00	29.813 
15:55	47.4	47.4	47.4	35	21.1	2	5	248	0.00	29.813 
16:00	46.7	46.7	46.7	32	18.4	3	6	292	0.00	29.816 
16:05	46.1	44.4	46.1	32	17.9	4	7	270	0.00	29.816 
16:10	46.7	46.7	46.7	34	19.8	3	9	270	0.00	29.816 
16:15	47.4	47.4	47.4	31	18.3	3	7	270	0.00	29.814 
16:20	46.7	45.1	46.7	31	17.7	4	11	315	0.00	29.814 
16:25	46.4	46.4	46.4	33	18.9	3	7	270	0.00	29.814 
16:30	47.1	47.1	47.1	34	20.2	3	6	270	0.00	29.816 
16:35	47.3	45.8	47.3	33	19.7	4	10	270	0.00	29.816 
16:40	46.8	46.8	46.8	35	20.6	3	6	315	0.00	29.816 
16:45	46.8	46.8	46.8	35	20.6	2	6	270	0.00	29.819 
16:50	46.7	46.7	46.7	34	19.8	2	5	270	0.00	29.819 
16:55	46.7	46.7	46.7	35	20.5	3	7	270	0.00	29.819 
17:00	46.2	46.2	46.2	34	19.4	3	8	270	0.00	29.826 
17:05	46.2	46.2	46.2	35	20.1	2	7	270	0.00	29.826 
17:10	46.8	46.8	46.8	36	21.3	2	5	270	0.00	29.826 
17:15	47.7	46.2	47.7	33	20.0	4	7	270	0.00	29.824 
17:20	48.0	48.0	48.0	35	21.7	3	7	270	0.00	29.824 
17:25	48.2	46.8	48.2	35	21.8	4	9	270	0.00	29.824 
17:30	48.3	48.3	48.3	33	20.5	3	6	270	0.00	29.827 
17:35	48.2	48.2	48.2	35	21.8	3	7	248	0.00	29.827 
17:40	48.2	46.8	48.2	33	20.5	4	10	270	0.00	29.827 
17:45	47.7	46.2	47.7	35	21.4	4	10	248	0.00	29.834 
17:50	47.1	47.1	47.1	36	21.5	2	5	270	0.00	29.834 
17:55	47.4	47.4	47.4	35	21.1	3	9	270	0.00	29.834 
18:00	47.0	45.4	47.0	35	20.8	4	6	270	0.00	29.837 
18:05	46.2	46.2	46.2	37	21.4	2	6	270	0.00	29.837 
18:10	46.5	46.5	46.5	38	22.3	2	5	292	0.00	29.837 
18:15	46.5	46.5	46.5	36	21.0	2	5	248	0.00	29.845 
18:20	46.1	46.1	46.1	38	21.9	2	7	248	0.00	29.845 
18:25	46.0	46.0	46.0	39	22.4	2	4	248	0.00	29.845 
18:30	45.8	45.8	45.8	39	22.3	2	5	248	0.00	29.852 
18:35	46.0	46.0	46.0	39	22.4	2	5	248	0.00	29.852 
18:40	46.5	46.5	46.5	39	22.9	1	3	338	0.00	29.852 
18:45	47.0	47.0	47.0	38	22.7	1	4	248	0.00	29.852 
18:50	47.3	47.3	47.3	38	23.0	2	5	248	0.00	29.852 
18:55	47.0	47.0	47.0	38	22.7	2	3	248	0.00	29.852 
19:00	46.7	46.7	46.7	39	23.1	1	2	248	0.00	29.856 
19:05	46.2	46.2	46.2	39	22.6	1	3	248	0.00	29.856 
19:10	46.0	46.0	46.0	38	21.8	1	4	315	0.00	29.856 
19:15	46.0	46.0	46.0	38	21.8	1	4	270	0.00	29.861 
19:20	46.0	46.0	46.0	40	23.0	0	2	270	0.00	29.861 
19:25	45.8	45.8	45.8	40	22.9	0	0	---	0.00	29.861 
19:30	45.7	45.7	45.7	39	22.2	0	3	270	0.00	29.864 
19:35	45.5	45.5	45.5	39	22.0	0	3	270	0.00	29.864 
19:40	45.4	45.4	45.4	39	21.9	0	2	270	0.00	29.864 
19:45	45.2	45.2	45.2	40	22.3	0	1	270	0.00	29.864 
19:50	44.9	44.9	44.9	40	22.1	0	2	270	0.00	29.864 
19:55	44.6	44.6	44.6	41	22.4	0	1	270	0.00	29.864 
20:00	44.3	44.3	44.3	42	22.7	0	1	270	0.00	29.865 
20:05	44.1	44.1	44.1	41	21.9	0	0	---	0.00	29.865 
20:10	43.8	43.8	43.8	42	22.2	0	0	---	0.00	29.865 
20:15	43.5	43.5	43.5	43	22.5	0	0	---	0.00	29.864 
20:20	43.2	43.2	43.2	43	22.2	0	0	---	0.00	29.864 
20:25	42.8	42.8	42.8	44	22.4	0	0	---	0.00	29.864 
20:30	42.3	42.3	42.3	44	22.0	0	0	---	0.00	29.871 
20:35	41.8	41.8	41.8	45	22.0	0	0	---	0.00	29.871 
20:40	41.2	41.2	41.2	46	22.0	0	0	---	0.00	29.871 
20:45	40.6	40.6	40.6	47	22.0	0	0	---	0.00	29.877 
20:50	40.1	40.1	40.1	48	22.0	0	0	---	0.00	29.877 
20:55	39.5	39.5	39.5	50	22.4	0	0	---	0.00	29.877 
21:00	39.1	39.1	39.1	51	22.5	0	0	---	0.00	29.880 
21:05	38.5	38.5	38.5	53	22.9	0	0	---	0.00	29.880 
21:10	38.0	38.0	38.0	54	22.9	0	0	---	0.00	29.880 
21:15	37.6	37.6	37.6	54	22.5	0	0	---	0.00	29.880 
21:20	37.2	37.2	37.2	54	22.1	0	0	---	0.00	29.880 
21:25	36.9	36.9	36.9	55	22.3	0	0	---	0.00	29.880 
21:30	36.5	36.5	36.5	58	23.1	0	0	---	0.00	29.887 
21:35	36.3	36.3	36.3	59	23.4	0	0	---	0.00	29.887 
21:40	36.0	36.0	36.0	59	23.1	0	0	---	0.00	29.887 
21:45	35.8	35.8	35.8	60	23.3	0	0	---	0.00	29.891 
21:50	35.5	35.5	35.5	61	23.4	0	0	---	0.00	29.891 
21:55	35.2	35.2	35.2	62	23.5	0	0	---	0.00	29.891 
22:00	35.0	35.0	35.0	63	23.7	0	0	---	0.00	29.903 
22:05	34.7	34.7	34.7	64	23.8	0	0	---	0.00	29.903 
22:10	34.7	34.7	34.7	65	24.2	0	0	---	0.00	29.903 
22:15	34.9	34.9	34.9	66	24.7	0	0	---	0.00	29.899 
22:20	34.9	34.9	34.9	66	24.7	0	0	---	0.00	29.899 
22:25	35.2	35.2	35.2	66	25.0	0	0	---	0.00	29.899 
22:30	35.5	35.5	35.5	65	24.9	0	0	---	0.00	29.900 
22:35	36.0	36.0	36.0	64	25.0	0	0	---	0.00	29.900 
22:40	36.6	36.6	36.6	63	25.2	0	0	---	0.00	29.900 
22:45	37.3	37.3	37.3	61	25.1	0	0	---	0.00	29.898 
22:50	37.8	37.8	37.8	60	25.2	0	0	---	0.00	29.898 
22:55	38.2	38.2	38.2	57	24.3	0	0	---	0.00	29.898 
23:00	38.6	38.6	38.6	55	23.8	0	0	---	0.00	29.892 
23:05	38.9	38.9	38.9	55	24.1	0	0	---	0.00	29.892 
23:10	39.1	39.1	39.1	56	24.7	0	0	---	0.00	29.892 
23:15	39.1	39.1	39.1	56	24.7	0	0	---	0.00	29.891 
23:20	39.1	39.1	39.1	55	24.3	0	0	---	0.00	29.891 
23:25	39.1	39.1	39.1	56	24.7	0	0	---	0.00	29.891 
23:30	38.9	38.9	38.9	56	24.6	0	0	---	0.00	29.892 
23:35	38.6	38.6	38.6	57	24.7	0	0	---	0.00	29.892 
23:40	38.3	38.3	38.3	58	24.8	0	0	---	0.00	29.892 
23:45	38.2	38.2	38.2	58	24.7	0	0	---	0.00	29.886 
23:50	38.2	38.2	38.2	59	25.2	0	0	---	0.00	29.886 
23:55	38.2	38.2	38.2	59	25.2	0	0	---	0.00	29.886 

CoCoRaHS
IN-AL-39
A2 Web Hosting
Creative Commons License
GoDaddy
search engine by freefind advanced

loaded 2018-11-14 03:55:52 • last modified 2010-11-18 10:43:29
Privacy PolicyDisclaimer
• wx.awcolley.com is powered by PmWiki v.2002016 •
• all content (unless otherwise noted) © 2018 A W Colley